createdAt,value
2022-10-02T00:02:39.197Z,14.59
2022-10-02T00:07:46.431Z,14.59
2022-10-02T00:12:53.020Z,14.61
2022-10-02T00:17:59.293Z,14.62
2022-10-02T00:23:03.652Z,14.66
2022-10-02T00:28:14.575Z,14.65
2022-10-02T00:33:43.509Z,14.69
2022-10-02T00:38:58.417Z,14.68
2022-10-02T00:44:05.882Z,14.69
2022-10-02T00:49:19.476Z,14.72
2022-10-02T00:54:24.076Z,14.73
2022-10-02T00:59:57.772Z,14.73
2022-10-02T01:05:01.756Z,14.74
2022-10-02T01:10:03.884Z,14.72
2022-10-02T01:15:20.942Z,14.69
2022-10-02T01:20:30.062Z,14.70
2022-10-02T01:25:32.266Z,14.71
2022-10-02T01:30:36.755Z,14.72
2022-10-02T01:35:39.993Z,14.69
2022-10-02T01:40:41.999Z,14.70
2022-10-02T01:45:52.402Z,14.73
2022-10-02T01:51:16.524Z,14.72
2022-10-02T01:56:26.788Z,14.74
2022-10-02T02:01:47.641Z,14.72
2022-10-02T02:07:09.100Z,14.74
2022-10-02T02:12:49.444Z,14.75
2022-10-02T02:18:01.380Z,14.77
2022-10-02T02:23:13.128Z,14.72
2022-10-02T02:28:18.966Z,14.71
2022-10-02T02:33:31.085Z,14.71
2022-10-02T02:38:39.918Z,14.69
2022-10-02T02:43:46.471Z,14.68
2022-10-02T02:49:00.272Z,14.67
2022-10-02T02:54:01.781Z,14.68
2022-10-02T02:59:12.279Z,14.66
2022-10-02T03:04:14.805Z,14.66
2022-10-02T03:09:19.166Z,14.67
2022-10-02T03:14:23.681Z,14.68
2022-10-02T03:19:46.348Z,14.67
2022-10-02T03:25:10.762Z,14.66
2022-10-02T03:30:14.527Z,14.69
2022-10-02T03:35:17.501Z,14.66
2022-10-02T03:40:26.084Z,14.69
2022-10-02T03:45:50.098Z,14.67
2022-10-02T03:50:51.040Z,14.62
2022-10-02T03:55:59.874Z,14.61
2022-10-02T04:01:28.105Z,14.61
2022-10-02T04:06:44.147Z,14.58
2022-10-02T04:12:13.131Z,14.52
2022-10-02T04:17:26.652Z,14.50
2022-10-02T04:22:42.983Z,14.51
2022-10-02T04:27:51.106Z,14.52
2022-10-02T04:32:53.943Z,14.51
2022-10-02T04:38:17.395Z,14.54
2022-10-02T04:43:46.977Z,14.52
2022-10-02T04:49:15.036Z,14.54
2022-10-02T04:54:45.131Z,14.50
2022-10-02T05:00:02.303Z,14.50
2022-10-02T05:05:10.048Z,14.47
2022-10-02T05:10:31.154Z,14.47
2022-10-02T05:15:56.264Z,14.48
2022-10-02T05:21:36.231Z,14.47
2022-10-02T05:26:54.174Z,14.49
2022-10-02T05:32:05.814Z,14.48
2022-10-02T05:37:16.241Z,14.49
2022-10-02T05:42:41.118Z,14.50
2022-10-02T05:47:46.395Z,14.55
2022-10-02T05:52:57.828Z,14.55
2022-10-02T05:58:20.631Z,14.56
2022-10-02T06:03:33.726Z,14.56
2022-10-02T06:09:01.283Z,14.57
2022-10-02T06:14:10.655Z,14.61
2022-10-02T06:19:23.614Z,14.63
2022-10-02T06:24:44.926Z,14.68
2022-10-02T06:29:54.315Z,14.68
2022-10-02T06:34:56.761Z,14.66
2022-10-02T06:40:37.510Z,14.67
2022-10-02T06:46:11.176Z,14.70
2022-10-02T06:51:21.442Z,14.71
2022-10-02T06:56:41.183Z,14.73
2022-10-02T07:02:08.410Z,14.73
2022-10-02T07:07:27.188Z,14.73
2022-10-02T07:13:12.291Z,14.71
2022-10-02T07:18:33.701Z,14.74
2022-10-02T07:24:02.660Z,14.77
2022-10-02T07:29:13.512Z,14.80
2022-10-02T07:34:29.044Z,14.83
2022-10-02T07:39:54.857Z,14.88
2022-10-02T07:45:27.787Z,14.91
2022-10-02T07:50:59.569Z,14.90
2022-10-02T07:56:02.320Z,14.90
2022-10-02T08:01:12.603Z,14.94
2022-10-02T08:06:15.756Z,14.98
2022-10-02T08:11:31.393Z,15.02
2022-10-02T08:16:49.661Z,15.06
2022-10-02T08:22:00.843Z,15.11
2022-10-02T08:27:08.356Z,15.17
2022-10-02T08:32:13.643Z,15.18
2022-10-02T08:37:24.241Z,15.23
2022-10-02T08:42:44.748Z,15.26
2022-10-02T08:48:07.912Z,15.31
2022-10-02T08:53:28.357Z,15.37
2022-10-02T08:58:53.900Z,15.45
2022-10-02T09:04:35.969Z,15.48
2022-10-02T09:09:45.875Z,15.49
2022-10-02T09:14:59.624Z,15.51
2022-10-02T09:20:21.352Z,15.52
2022-10-02T09:25:44.783Z,15.55
2022-10-02T09:30:49.287Z,15.58
2022-10-02T09:36:16.849Z,15.64
2022-10-02T09:41:41.192Z,15.61
2022-10-02T09:47:00.582Z,15.61
2022-10-02T09:52:24.235Z,15.63
2022-10-02T09:57:54.276Z,15.68
2022-10-02T10:03:13.779Z,15.69
2022-10-02T10:08:36.534Z,15.74
2022-10-02T10:14:03.659Z,15.79
2022-10-02T10:19:27.413Z,15.82
2022-10-02T10:24:55.210Z,15.87
2022-10-02T10:30:38.984Z,15.90
2022-10-02T10:35:59.997Z,15.95
2022-10-02T10:41:24.335Z,15.97
2022-10-02T10:46:45.163Z,16.02
2022-10-02T10:52:14.010Z,16.03
2022-10-02T10:57:37.663Z,16.05
2022-10-02T11:02:45.124Z,16.08
2022-10-02T11:08:31.681Z,16.12
2022-10-02T11:14:05.550Z,16.11
2022-10-02T11:19:27.846Z,16.10
2022-10-02T11:24:55.186Z,16.10
2022-10-02T11:30:20.700Z,16.10
2022-10-02T11:35:25.179Z,16.08
2022-10-02T11:40:57.807Z,16.04
2022-10-02T11:46:33.518Z,16.02
2022-10-02T11:51:56.393Z,16.06
2022-10-02T11:57:16.542Z,16.10
2022-10-02T12:02:32.629Z,16.13
2022-10-02T12:07:56.031Z,16.11
2022-10-02T12:13:16.337Z,16.12
2022-10-02T12:18:39.488Z,16.12
2022-10-02T12:24:14.706Z,16.07
2022-10-02T12:29:30.192Z,16.02
2022-10-02T12:34:56.244Z,15.97
2022-10-02T12:40:45.302Z,15.88
2022-10-02T12:46:07.933Z,15.84
2022-10-02T12:51:46.468Z,15.80
2022-10-02T12:57:40.945Z,15.76
2022-10-02T13:03:02.034Z,15.72
2022-10-02T13:08:25.296Z,15.71
2022-10-02T13:13:40.111Z,15.73
2022-10-02T13:19:09.152Z,15.74
2022-10-02T13:24:29.448Z,15.74
2022-10-02T13:29:51.879Z,15.74
2022-10-02T13:35:20.634Z,15.76
2022-10-02T13:40:29.601Z,15.73
2022-10-02T13:45:55.931Z,15.72
2022-10-02T13:51:08.305Z,15.68
2022-10-02T13:56:31.964Z,15.66
2022-10-02T14:01:51.043Z,15.56
2022-10-02T14:07:09.824Z,15.55
2022-10-02T14:12:40.950Z,15.53
2022-10-02T14:18:07.231Z,15.52
2022-10-02T14:23:14.781Z,15.52
2022-10-02T14:28:29.781Z,15.49
2022-10-02T14:33:52.855Z,15.49
2022-10-02T14:39:10.870Z,15.51
2022-10-02T14:44:42.095Z,15.52
2022-10-02T14:50:12.675Z,15.56
2022-10-02T14:55:20.195Z,15.60
2022-10-02T15:00:27.387Z,15.61
2022-10-02T15:05:41.852Z,15.60
2022-10-02T15:10:46.282Z,15.61
2022-10-02T15:16:14.739Z,15.57
2022-10-02T15:21:26.862Z,15.54
2022-10-02T15:26:31.394Z,15.50
2022-10-02T15:32:18.271Z,15.48
2022-10-02T15:37:42.395Z,15.49
2022-10-02T15:42:58.033Z,15.43
2022-10-02T15:48:15.970Z,15.38
2022-10-02T15:53:29.429Z,15.36
2022-10-02T15:58:52.794Z,15.31
2022-10-02T16:04:07.540Z,15.31
2022-10-02T16:09:40.067Z,15.29
2022-10-02T16:14:55.824Z,15.18
2022-10-02T16:20:06.322Z,15.18
2022-10-02T16:25:45.658Z,15.13
2022-10-02T16:30:50.164Z,15.12
2022-10-02T16:36:08.158Z,15.13
2022-10-02T16:41:28.101Z,15.16
2022-10-02T16:46:40.254Z,15.17
2022-10-02T16:51:45.089Z,15.20
2022-10-02T16:57:00.272Z,15.19
2022-10-02T17:02:19.370Z,15.15
2022-10-02T17:07:49.583Z,15.10
2022-10-02T17:12:59.589Z,15.10
2022-10-02T17:18:03.766Z,15.11
2022-10-02T17:23:20.000Z,15.10
2022-10-02T17:28:36.071Z,15.11
2022-10-02T17:33:52.320Z,15.12
2022-10-02T17:39:04.169Z,15.11
2022-10-02T17:44:14.996Z,15.09
2022-10-02T17:49:30.155Z,15.08
2022-10-02T17:55:31.200Z,15.09
2022-10-02T18:00:36.227Z,15.10
2022-10-02T18:05:57.419Z,15.11
2022-10-02T18:11:07.631Z,15.10
2022-10-02T18:16:29.589Z,15.09
2022-10-02T18:21:53.756Z,15.09
2022-10-02T18:27:36.991Z,15.08
2022-10-02T18:33:03.071Z,15.04
2022-10-02T18:38:28.972Z,15.03
2022-10-02T18:43:54.470Z,15.06
2022-10-02T18:49:33.265Z,15.06
2022-10-02T18:55:05.967Z,15.04
2022-10-02T19:00:26.779Z,15.05
2022-10-02T19:05:39.080Z,15.06
2022-10-02T19:10:44.851Z,15.06
2022-10-02T19:15:48.501Z,15.04
2022-10-02T19:20:55.409Z,15.01
2022-10-02T19:26:02.901Z,15.01
2022-10-02T19:31:07.952Z,15.03
2022-10-02T19:36:18.145Z,15.00
2022-10-02T19:41:22.670Z,15.00
2022-10-02T19:46:34.908Z,15.01
2022-10-02T19:51:47.726Z,14.97
2022-10-02T19:56:56.602Z,14.95
2022-10-02T20:02:03.743Z,14.95
2022-10-02T20:07:05.409Z,14.90
2022-10-02T20:12:16.766Z,14.87
2022-10-02T20:17:19.080Z,14.85
2022-10-02T20:22:38.845Z,14.84
2022-10-02T20:27:47.013Z,14.83
2022-10-02T20:33:06.519Z,14.85
2022-10-02T20:38:26.144Z,14.80
2022-10-02T20:43:48.190Z,14.76
2022-10-02T20:49:09.352Z,14.77
2022-10-02T20:54:23.820Z,14.75
2022-10-02T20:59:28.090Z,14.71
2022-10-02T21:04:49.154Z,14.68
2022-10-02T21:10:30.348Z,14.66
2022-10-02T21:15:46.726Z,14.62
2022-10-02T21:21:17.737Z,14.60
2022-10-02T21:26:26.983Z,14.54
2022-10-02T21:31:58.380Z,14.52
2022-10-02T21:37:16.898Z,14.51
2022-10-02T21:42:31.792Z,14.50
2022-10-02T21:48:04.563Z,14.55
2022-10-02T21:53:43.302Z,14.57
2022-10-02T21:59:23.909Z,14.57
2022-10-02T22:04:46.373Z,14.60
2022-10-02T22:09:59.430Z,14.63
2022-10-02T22:15:21.944Z,14.64
2022-10-02T22:20:45.350Z,14.67
2022-10-02T22:26:09.470Z,14.63
2022-10-02T22:31:36.873Z,14.62
2022-10-02T22:37:26.712Z,14.58
2022-10-02T22:42:53.889Z,14.57
2022-10-02T22:48:13.186Z,14.53
2022-10-02T22:53:20.814Z,14.51
2022-10-02T22:58:34.663Z,14.49
2022-10-02T23:04:21.230Z,14.43
2022-10-02T23:09:29.106Z,14.37
2022-10-02T23:14:54.495Z,14.31
2022-10-02T23:20:16.699Z,14.27
2022-10-02T23:25:33.073Z,14.22
2022-10-02T23:30:43.253Z,14.20
2022-10-02T23:35:57.798Z,14.20
2022-10-02T23:41:27.391Z,14.20
2022-10-02T23:46:36.295Z,14.17
2022-10-02T23:51:52.341Z,14.15
2022-10-02T23:57:24.810Z,14.13
